createdAt,value
2018-04-15T00:01:38.812Z,72.27
2018-04-15T00:04:07.290Z,73.73
2018-04-15T00:06:35.781Z,72.00
2018-04-15T00:09:04.300Z,74.80
2018-04-15T00:11:32.740Z,74.57
2018-04-15T00:14:01.221Z,68.80
2018-04-15T00:16:29.665Z,70.17
2018-04-15T00:18:58.136Z,71.83
2018-04-15T00:21:26.634Z,73.97
2018-04-15T00:23:55.087Z,77.43
2018-04-15T00:26:23.536Z,66.83
2018-04-15T00:28:52.036Z,72.20
2018-04-15T00:31:20.472Z,78.80
2018-04-15T00:33:48.923Z,70.17
2018-04-15T00:36:17.576Z,72.60
2018-04-15T00:38:46.017Z,71.07
2018-04-15T00:41:14.460Z,72.97
2018-04-15T00:43:42.936Z,73.00
2018-04-15T00:46:11.381Z,67.60
2018-04-15T00:48:39.830Z,67.67
2018-04-15T00:51:08.384Z,74.93
2018-04-15T00:53:48.651Z,63.83
2018-04-15T00:56:17.132Z,72.43
2018-04-15T00:58:45.577Z,62.17
2018-04-15T01:01:14.061Z,81.33
2018-04-15T01:03:42.577Z,72.27
2018-04-15T01:06:11.020Z,82.97
2018-04-15T01:08:39.464Z,73.77
2018-04-15T01:11:07.967Z,74.43
2018-04-15T01:13:36.416Z,70.57
2018-04-15T01:16:04.876Z,72.93
2018-04-15T01:18:33.364Z,65.53
2018-04-15T01:21:01.818Z,78.30
2018-04-15T01:23:30.264Z,75.90
2018-04-15T01:25:58.788Z,82.60
2018-04-15T01:28:27.236Z,80.10
2018-04-15T01:30:55.682Z,83.33
2018-04-15T01:33:24.205Z,73.43
2018-04-15T01:35:52.641Z,75.83
2018-04-15T01:38:21.072Z,75.60
2018-04-15T01:40:49.569Z,72.90
2018-04-15T01:43:18.019Z,73.23
2018-04-15T01:45:46.492Z,75.87
2018-04-15T01:48:14.994Z,74.57
2018-04-15T01:50:43.440Z,76.57
2018-04-15T01:53:11.884Z,73.13
2018-04-15T01:55:40.360Z,76.13
2018-04-15T01:58:08.808Z,76.37
2018-04-15T02:00:37.248Z,74.90
2018-04-15T02:03:05.731Z,83.87
2018-04-15T02:05:34.176Z,80.00
2018-04-15T02:08:02.624Z,74.83
2018-04-15T02:10:31.122Z,69.23
2018-04-15T02:12:59.589Z,82.20
2018-04-15T02:15:28.041Z,71.30
2018-04-15T02:17:56.524Z,71.53
2018-04-15T02:20:24.956Z,72.97
2018-04-15T02:22:53.392Z,77.07
2018-04-15T02:25:21.880Z,83.00
2018-04-15T02:27:50.327Z,78.67
2018-04-15T02:30:18.787Z,77.07
2018-04-15T02:32:47.278Z,80.27
2018-04-15T02:35:15.720Z,71.63
2018-04-15T02:37:44.185Z,85.63
2018-04-15T02:40:12.681Z,78.50
2018-04-15T02:42:41.141Z,74.00
2018-04-15T02:45:09.605Z,83.67
2018-04-15T02:47:38.145Z,82.40
2018-04-15T02:50:06.585Z,78.17
2018-04-15T02:52:35.036Z,79.37
2018-04-15T02:55:03.545Z,75.70
2018-04-15T02:57:31.988Z,79.83
2018-04-15T03:00:00.443Z,79.97
2018-04-15T03:02:28.957Z,74.43
2018-04-15T03:04:57.399Z,74.03
2018-04-15T03:07:25.849Z,69.57
2018-04-15T03:09:54.349Z,73.87
2018-04-15T03:12:22.804Z,73.57
2018-04-15T03:14:51.256Z,75.10
2018-04-15T03:17:19.745Z,74.03
2018-04-15T03:19:48.187Z,80.60
2018-04-15T03:22:16.625Z,75.17
2018-04-15T03:24:45.150Z,73.83
2018-04-15T03:27:13.596Z,72.83
2018-04-15T03:29:42.092Z,75.63
2018-04-15T03:32:10.567Z,79.93
2018-04-15T03:34:39.006Z,75.10
2018-04-15T03:37:07.448Z,70.33
2018-04-15T03:39:35.944Z,74.60
2018-04-15T03:42:04.383Z,75.17
2018-04-15T03:44:32.825Z,76.87
2018-04-15T03:47:01.324Z,71.60
2018-04-15T03:49:29.772Z,75.27
2018-04-15T03:51:58.216Z,73.17
2018-04-15T03:54:26.697Z,77.17
2018-04-15T03:56:55.157Z,71.20
2018-04-15T03:59:23.611Z,80.87
2018-04-15T04:01:52.092Z,77.77
2018-04-15T04:04:20.545Z,74.30
2018-04-15T04:06:49.024Z,76.07
2018-04-15T04:09:17.546Z,76.03
2018-04-15T04:11:45.996Z,78.50
2018-04-15T04:14:14.432Z,78.53
2018-04-15T04:16:42.945Z,79.10
2018-04-15T04:19:23.091Z,82.10
2018-04-15T04:22:03.224Z,78.33
2018-04-15T04:24:43.442Z,72.83
2018-04-15T04:27:11.931Z,76.33
2018-04-15T04:29:40.418Z,74.13
2018-04-15T04:32:09.190Z,81.00
2018-04-15T04:34:37.687Z,76.63
2018-04-15T04:37:06.139Z,75.13
2018-04-15T04:39:34.592Z,77.43
2018-04-15T04:42:03.081Z,79.57
2018-04-15T04:44:31.545Z,75.83
2018-04-15T04:47:01.185Z,76.30
2018-04-15T04:49:29.674Z,76.10
2018-04-15T04:51:58.117Z,79.70
2018-04-15T04:54:26.565Z,83.07
2018-04-15T04:56:55.048Z,82.50
2018-04-15T05:02:14.788Z,74.00
2018-04-15T05:04:43.251Z,76.33
2018-04-15T05:07:11.722Z,80.07
2018-04-15T05:09:40.205Z,73.00
2018-04-15T05:12:08.648Z,73.60
2018-04-15T05:14:37.145Z,74.67
2018-04-15T05:17:05.658Z,72.03
2018-04-15T05:19:34.101Z,78.37
2018-04-15T05:22:02.547Z,68.50
2018-04-15T05:24:31.052Z,68.27
2018-04-15T05:26:59.494Z,71.73
2018-04-15T05:29:27.937Z,70.70
2018-04-15T05:31:56.422Z,61.00
2018-04-15T05:34:24.860Z,77.57
2018-04-15T05:36:53.306Z,69.73
2018-04-15T05:39:21.779Z,68.60
2018-04-15T05:41:50.220Z,68.63
2018-04-15T05:44:18.669Z,71.07
2018-04-15T05:46:47.156Z,68.50
2018-04-15T05:49:15.604Z,68.00
2018-04-15T05:51:44.054Z,71.40
2018-04-15T05:54:12.550Z,74.70
2018-04-15T05:56:41.052Z,76.93
2018-04-15T05:59:09.496Z,78.70
2018-04-15T06:01:37.984Z,75.50
2018-04-15T06:04:06.508Z,77.23
2018-04-15T06:06:35.023Z,68.40
2018-04-15T06:09:03.561Z,69.70
2018-04-15T06:11:32.037Z,68.50
2018-04-15T06:14:00.504Z,77.17
2018-04-15T06:16:28.987Z,75.93
2018-04-15T06:18:57.437Z,73.40
2018-04-15T06:21:25.908Z,64.13
2018-04-15T06:23:54.392Z,74.00
2018-04-15T06:26:22.834Z,73.33
2018-04-15T06:28:51.268Z,72.00
2018-04-15T06:31:19.761Z,77.40
2018-04-15T06:33:48.211Z,71.57
2018-04-15T06:36:16.651Z,71.80
2018-04-15T06:38:45.132Z,69.63
2018-04-15T06:41:13.567Z,75.77
2018-04-15T06:43:42.001Z,62.27
2018-04-15T06:46:10.511Z,70.20
2018-04-15T06:48:38.958Z,68.33
2018-04-15T06:51:07.412Z,73.83
2018-04-15T06:53:35.890Z,60.67
2018-04-15T06:56:04.325Z,66.53
2018-04-15T06:58:32.767Z,75.07
2018-04-15T07:01:01.243Z,75.47
2018-04-15T07:03:29.684Z,73.13
2018-04-15T07:05:58.128Z,62.03
2018-04-15T07:08:26.799Z,76.43
2018-04-15T07:10:55.250Z,72.47
2018-04-15T07:13:23.691Z,74.63
2018-04-15T07:15:52.184Z,86.80
2018-04-15T07:18:20.624Z,71.47
2018-04-15T07:20:49.064Z,72.00
2018-04-15T07:23:17.544Z,77.57
2018-04-15T07:25:45.984Z,78.23
2018-04-15T07:28:14.468Z,73.83
2018-04-15T07:30:42.956Z,69.53
2018-04-15T07:33:11.400Z,74.83
2018-04-15T07:35:39.866Z,83.67
2018-04-15T07:38:08.369Z,83.17
2018-04-15T07:40:36.812Z,83.37
2018-04-15T07:43:05.263Z,67.97
2018-04-15T07:45:33.742Z,79.97
2018-04-15T07:48:02.180Z,74.57
2018-04-15T07:50:30.636Z,76.87
2018-04-15T07:52:59.299Z,80.13
2018-04-15T07:55:27.743Z,70.30
2018-04-15T07:57:56.196Z,69.53
2018-04-15T08:00:24.677Z,80.97
2018-04-15T08:02:53.128Z,90.10
2018-04-15T08:05:21.581Z,79.27
2018-04-15T08:07:50.069Z,81.50
2018-04-15T08:10:18.512Z,78.47
2018-04-15T08:12:46.954Z,84.20
2018-04-15T08:15:15.436Z,77.40
2018-04-15T08:17:43.880Z,81.80
2018-04-15T08:20:12.315Z,80.23
2018-04-15T08:22:40.800Z,78.37
2018-04-15T08:25:09.243Z,77.53
2018-04-15T08:27:37.732Z,82.43
2018-04-15T08:30:06.283Z,71.50
2018-04-15T08:32:34.731Z,79.57
2018-04-15T08:35:03.193Z,69.03
2018-04-15T08:37:31.685Z,76.57
2018-04-15T08:40:00.116Z,79.90
2018-04-15T08:42:28.553Z,79.00
2018-04-15T08:44:57.041Z,80.97
2018-04-15T08:47:25.551Z,87.67
2018-04-15T08:49:53.988Z,79.93
2018-04-15T08:52:22.472Z,91.77
2018-04-15T08:54:50.913Z,72.30
2018-04-15T08:57:19.362Z,81.40
2018-04-15T08:59:47.874Z,77.57
2018-04-15T09:02:16.331Z,75.67
2018-04-15T09:04:44.769Z,79.00
2018-04-15T09:07:13.269Z,81.37
2018-04-15T09:09:41.725Z,67.77
2018-04-15T09:12:10.169Z,79.77
2018-04-15T09:14:38.660Z,75.37
2018-04-15T09:17:07.095Z,76.13
2018-04-15T09:19:35.532Z,80.10
2018-04-15T09:22:04.070Z,69.27
2018-04-15T09:24:32.540Z,81.37
2018-04-15T09:27:00.981Z,77.97
2018-04-15T09:29:29.512Z,75.57
2018-04-15T09:31:57.931Z,71.37
2018-04-15T09:34:26.367Z,64.73
2018-04-15T09:36:54.849Z,61.70
2018-04-15T09:39:23.299Z,61.63
2018-04-15T09:41:51.735Z,60.60
2018-04-15T09:44:20.238Z,51.60
2018-04-15T09:46:48.738Z,52.97
2018-04-15T09:49:17.189Z,54.57
2018-04-15T09:51:46.040Z,50.13
2018-04-15T09:54:14.481Z,49.63
2018-04-15T09:56:42.925Z,41.20
2018-04-15T09:59:11.468Z,45.40
2018-04-15T10:01:39.884Z,37.13
2018-04-15T10:04:08.316Z,42.30
2018-04-15T10:06:36.800Z,35.43
2018-04-15T10:09:05.268Z,35.40
2018-04-15T10:11:33.709Z,34.43
2018-04-15T10:14:02.230Z,33.87
2018-04-15T10:16:30.716Z,36.60
2018-04-15T10:18:59.151Z,36.33
2018-04-15T10:21:27.642Z,37.83
2018-04-15T10:23:56.099Z,35.90
2018-04-15T10:26:24.563Z,32.80
2018-04-15T10:28:53.041Z,26.50
2018-04-15T10:31:21.480Z,32.60
2018-04-15T10:33:49.925Z,26.27
2018-04-15T10:36:18.403Z,25.53
2018-04-15T10:38:46.856Z,26.33
2018-04-15T10:41:15.332Z,24.87
2018-04-15T10:43:43.805Z,30.60
2018-04-15T10:46:12.244Z,29.87
2018-04-15T10:48:40.680Z,31.70
2018-04-15T10:51:09.161Z,33.10
2018-04-15T10:53:37.608Z,24.67
2018-04-15T10:56:06.055Z,28.03
2018-04-15T10:58:34.533Z,28.43
2018-04-15T11:01:02.981Z,30.20
2018-04-15T11:03:31.417Z,24.93
2018-04-15T11:05:59.900Z,23.40
2018-04-15T11:08:28.345Z,21.50
2018-04-15T11:10:56.784Z,25.90
2018-04-15T11:13:25.293Z,23.77
2018-04-15T11:15:53.750Z,23.03
2018-04-15T11:18:22.212Z,23.00
2018-04-15T11:20:50.722Z,23.63
2018-04-15T11:23:19.165Z,24.60
2018-04-15T11:25:47.607Z,20.37
2018-04-15T11:28:16.091Z,21.90
2018-04-15T11:30:44.527Z,20.47
2018-04-15T11:33:12.960Z,20.27
2018-04-15T11:35:41.444Z,20.87
2018-04-15T11:38:09.931Z,19.93
2018-04-15T11:40:38.375Z,19.67
2018-04-15T11:43:06.885Z,18.87
2018-04-15T11:45:35.324Z,23.60
2018-04-15T11:48:04.007Z,22.30
2018-04-15T11:50:32.493Z,24.03
2018-04-15T11:53:00.936Z,24.23
2018-04-15T11:55:29.386Z,24.43
2018-04-15T11:57:57.871Z,21.40
2018-04-15T12:00:26.321Z,23.37
2018-04-15T12:02:54.769Z,21.23
2018-04-15T12:05:23.264Z,21.90
2018-04-15T12:07:51.712Z,23.90
2018-04-15T12:10:20.170Z,16.43
2018-04-15T12:12:48.655Z,15.63
2018-04-15T12:15:17.095Z,15.70
2018-04-15T12:17:45.578Z,18.87
2018-04-15T12:20:14.063Z,19.27
2018-04-15T12:22:42.505Z,21.37
2018-04-15T12:25:10.946Z,19.90
2018-04-15T12:27:39.432Z,17.50
2018-04-15T12:30:07.872Z,18.57
2018-04-15T12:32:36.311Z,18.30
2018-04-15T12:35:04.784Z,19.87
2018-04-15T12:37:33.227Z,23.43
2018-04-15T12:40:01.672Z,20.27
2018-04-15T12:43:33.101Z,20.47
2018-04-15T12:46:01.518Z,18.13
2018-04-15T12:48:29.936Z,16.57
2018-04-15T12:50:58.428Z,16.20
2018-04-15T12:53:26.848Z,18.33
2018-04-15T12:55:55.261Z,17.10
2018-04-15T12:58:23.722Z,15.90
2018-04-15T13:00:52.140Z,17.63
2018-04-15T13:03:20.548Z,18.27
2018-04-15T13:05:48.996Z,20.20
2018-04-15T13:08:17.407Z,21.07
2018-04-15T13:10:45.819Z,20.00
2018-04-15T13:13:14.283Z,21.63
2018-04-15T13:15:42.699Z,20.07
2018-04-15T13:18:11.110Z,20.23
2018-04-15T13:20:39.565Z,20.10
2018-04-15T13:23:07.984Z,17.60
2018-04-15T13:25:36.440Z,19.83
2018-04-15T13:28:04.888Z,19.17
2018-04-15T13:30:33.306Z,19.33
2018-04-15T13:33:01.720Z,21.23
2018-04-15T13:35:30.199Z,22.70
2018-04-15T13:37:58.619Z,20.27
2018-04-15T13:40:27.035Z,19.63
2018-04-15T13:42:55.513Z,16.63
2018-04-15T13:45:23.924Z,21.00
2018-04-15T13:47:52.396Z,18.20
2018-04-15T13:50:20.856Z,17.63
2018-04-15T13:52:49.288Z,18.00
2018-04-15T13:55:17.721Z,16.87
2018-04-15T13:57:46.200Z,15.77
2018-04-15T14:00:14.607Z,18.63
2018-04-15T14:02:43.055Z,16.53
2018-04-15T14:05:11.564Z,17.67
2018-04-15T14:07:39.999Z,16.20
2018-04-15T14:10:08.437Z,15.50
2018-04-15T14:12:36.914Z,15.23
2018-04-15T14:15:05.360Z,15.97
2018-04-15T14:17:33.826Z,19.00
2018-04-15T14:20:02.333Z,17.53
2018-04-15T14:22:30.810Z,18.93
2018-04-15T14:24:59.252Z,19.07
2018-04-15T14:27:27.968Z,18.10
2018-04-15T14:29:56.411Z,21.60
2018-04-15T14:32:24.872Z,17.70
2018-04-15T14:34:53.365Z,19.50
2018-04-15T14:37:21.825Z,20.93
2018-04-15T14:39:50.286Z,19.47
2018-04-15T14:42:18.767Z,21.80
2018-04-15T14:44:47.220Z,18.23
2018-04-15T14:47:15.692Z,20.87
2018-04-15T14:49:44.210Z,20.10
2018-04-15T14:52:12.648Z,20.43
2018-04-15T14:54:41.092Z,18.37
2018-04-15T14:57:09.577Z,19.87
2018-04-15T14:59:38.035Z,19.97
2018-04-15T15:02:06.485Z,22.43
2018-04-15T15:04:35.017Z,21.17
2018-04-15T15:07:03.465Z,21.17
2018-04-15T15:09:31.932Z,20.77
2018-04-15T15:12:00.417Z,19.67
2018-04-15T15:14:28.889Z,22.03
2018-04-15T15:16:57.324Z,23.53
2018-04-15T15:19:25.852Z,25.60
2018-04-15T15:21:54.293Z,24.50
2018-04-15T15:24:22.741Z,22.47
2018-04-15T15:26:51.227Z,23.00
2018-04-15T15:29:19.736Z,26.17
2018-04-15T15:31:48.207Z,25.57
2018-04-15T15:34:16.696Z,27.60
2018-04-15T15:36:45.140Z,25.37
2018-04-15T15:39:13.625Z,33.13
2018-04-15T15:41:42.115Z,25.33
2018-04-15T15:44:10.560Z,25.80
2018-04-15T15:46:39.033Z,28.60
2018-04-15T15:49:07.513Z,27.07
2018-04-15T15:51:35.956Z,28.57
2018-04-15T15:54:04.424Z,27.17
2018-04-15T15:58:51.140Z,27.43
2018-04-15T16:01:19.553Z,30.33
2018-04-15T16:03:47.969Z,29.73
2018-04-15T16:06:16.435Z,28.63
2018-04-15T16:08:44.860Z,28.47
2018-04-15T16:11:13.293Z,29.00
2018-04-15T16:13:41.758Z,28.23
2018-04-15T16:16:10.185Z,31.00
2018-04-15T16:18:38.596Z,30.57
2018-04-15T16:21:07.068Z,32.10
2018-04-15T16:23:35.503Z,31.90
2018-04-15T16:26:03.947Z,40.23
2018-04-15T16:28:32.432Z,30.03
2018-04-15T16:31:00.855Z,29.87
2018-04-15T16:33:29.272Z,27.77
2018-04-15T16:35:57.724Z,30.07
2018-04-15T16:38:26.132Z,25.10
2018-04-15T16:40:54.563Z,26.13
2018-04-15T16:43:23.040Z,24.63
2018-04-15T16:45:51.453Z,26.20
2018-04-15T16:48:19.876Z,26.07
2018-04-15T16:50:48.378Z,23.10
2018-04-15T16:53:16.869Z,25.13
2018-04-15T16:55:45.288Z,23.40
2018-04-15T16:58:13.762Z,27.00
2018-04-15T17:00:42.180Z,27.33
2018-04-15T17:03:10.600Z,29.27
2018-04-15T17:05:39.076Z,25.97
2018-04-15T17:08:07.489Z,28.80
2018-04-15T17:10:35.904Z,26.53
2018-04-15T17:13:04.389Z,27.10
2018-04-15T17:15:32.800Z,26.97
2018-04-15T17:18:01.222Z,27.43
2018-04-15T17:20:29.680Z,27.37
2018-04-15T17:22:58.109Z,27.90
2018-04-15T17:25:26.537Z,27.93
2018-04-15T17:27:54.988Z,28.20
2018-04-15T17:30:23.416Z,27.07
2018-04-15T17:32:51.830Z,29.70
2018-04-15T17:35:20.292Z,26.37
2018-04-15T17:37:48.704Z,32.10
2018-04-15T17:40:17.117Z,27.53
2018-04-15T17:42:45.588Z,26.73
2018-04-15T17:45:14.020Z,27.40
2018-04-15T17:47:42.461Z,28.23
2018-04-15T17:50:11.161Z,27.67
2018-04-15T17:52:39.581Z,27.20
2018-04-15T17:55:08.057Z,29.00
2018-04-15T17:57:36.504Z,28.10
2018-04-15T18:00:04.963Z,27.80
2018-04-15T18:02:33.407Z,27.70
2018-04-15T18:05:01.890Z,27.40
2018-04-15T18:07:30.328Z,27.47
2018-04-15T18:09:58.748Z,26.33
2018-04-15T18:12:28.590Z,26.97
2018-04-15T18:15:00.325Z,25.93
2018-04-15T18:17:30.741Z,28.87
2018-04-15T18:19:59.183Z,29.43
2018-04-15T18:22:27.636Z,26.30
2018-04-15T18:24:56.260Z,25.00
2018-04-15T18:27:24.680Z,27.70
2018-04-15T18:29:53.087Z,28.00
2018-04-15T18:32:21.568Z,25.10
2018-04-15T18:34:50.021Z,26.17
2018-04-15T18:37:18.453Z,28.00
2018-04-15T18:39:46.928Z,25.00
2018-04-15T18:42:15.367Z,23.00
2018-04-15T18:44:43.903Z,21.93
2018-04-15T18:47:14.033Z,24.37
2018-04-15T18:49:42.615Z,22.70
2018-04-15T18:52:11.066Z,23.47
2018-04-15T18:54:39.537Z,26.93
2018-04-15T18:57:08.000Z,22.63
2018-04-15T18:59:36.445Z,21.47
2018-04-15T19:02:04.948Z,20.53
2018-04-15T19:04:33.399Z,20.83
2018-04-15T19:07:01.843Z,25.93
2018-04-15T19:09:30.337Z,21.20
2018-04-15T19:12:17.477Z,22.17
2018-04-15T19:14:45.971Z,24.10
2018-04-15T19:17:14.451Z,19.73
2018-04-15T19:19:42.928Z,24.83
2018-04-15T19:22:11.460Z,21.83
2018-04-15T19:24:39.914Z,21.37
2018-04-15T19:27:08.363Z,19.53
2018-04-15T19:29:36.999Z,19.13
2018-04-15T19:32:05.425Z,20.30
2018-04-15T19:34:33.875Z,21.30
2018-04-15T19:37:02.377Z,19.10
2018-04-15T19:39:30.858Z,20.53
2018-04-15T19:41:59.362Z,21.47
2018-04-15T19:44:27.828Z,22.93
2018-04-15T19:46:56.277Z,21.07
2018-04-15T19:49:24.733Z,20.27
2018-04-15T19:51:53.898Z,20.67
2018-04-15T19:54:28.946Z,19.87
2018-04-15T19:56:58.804Z,24.73
2018-04-15T19:59:29.165Z,19.60
2018-04-15T20:01:58.505Z,25.53
2018-04-15T20:04:28.685Z,25.63
2018-04-15T20:06:57.164Z,24.83
2018-04-15T20:09:25.819Z,25.73
2018-04-15T20:11:54.713Z,23.13
2018-04-15T20:14:24.630Z,22.70
2018-04-15T20:16:53.473Z,26.23
2018-04-15T20:19:22.164Z,25.50
2018-04-15T20:21:50.651Z,29.93
2018-04-15T20:24:19.132Z,28.70
2018-04-15T20:26:47.630Z,29.20
2018-04-15T20:29:16.097Z,28.03
2018-04-15T20:31:44.547Z,29.57
2018-04-15T20:34:13.062Z,24.83
2018-04-15T20:36:41.526Z,30.23
2018-04-15T20:39:10.385Z,27.43
2018-04-15T20:41:38.901Z,27.67
2018-04-15T20:44:07.400Z,29.67
2018-04-15T20:46:35.878Z,30.10
2018-04-15T20:49:04.419Z,30.13
2018-04-15T20:51:32.872Z,29.03
2018-04-15T20:54:01.322Z,27.40
2018-04-15T20:56:29.867Z,30.03
2018-04-15T20:58:58.345Z,30.47
2018-04-15T21:01:26.848Z,28.67
2018-04-15T21:03:55.356Z,29.07
2018-04-15T21:06:23.875Z,29.87
2018-04-15T21:08:52.329Z,27.57
2018-04-15T21:11:20.839Z,32.63
2018-04-15T21:13:49.331Z,30.70
2018-04-15T21:16:17.804Z,33.97
2018-04-15T21:18:46.300Z,29.70
2018-04-15T21:21:14.779Z,30.47
2018-04-15T21:23:43.288Z,30.07
2018-04-15T21:26:11.780Z,33.93
2018-04-15T21:28:40.225Z,32.90
2018-04-15T21:31:08.674Z,31.13
2018-04-15T21:33:37.176Z,35.03
2018-04-15T21:36:05.624Z,31.33
2018-04-15T21:38:34.091Z,36.13
2018-04-15T21:41:02.585Z,32.83
2018-04-15T21:43:31.021Z,34.30
2018-04-15T21:45:59.476Z,34.00
2018-04-15T21:48:27.992Z,33.03
2018-04-15T21:50:56.443Z,35.63
2018-04-15T21:53:24.943Z,33.90
2018-04-15T21:55:53.449Z,35.57
2018-04-15T21:58:21.903Z,33.27
2018-04-15T22:00:50.401Z,32.53
2018-04-15T22:03:18.920Z,34.37
2018-04-15T22:05:47.395Z,33.80
2018-04-15T22:08:15.836Z,37.90
2018-04-15T22:10:44.322Z,35.87
2018-04-15T22:13:12.760Z,36.80
2018-04-15T22:15:41.196Z,36.80
2018-04-15T22:18:09.676Z,34.07
2018-04-15T22:20:38.112Z,38.93
2018-04-15T22:23:06.552Z,41.23
2018-04-15T22:25:35.071Z,39.13
2018-04-15T22:28:03.532Z,41.13
2018-04-15T22:30:31.994Z,39.53
2018-04-15T22:33:00.483Z,38.60
2018-04-15T22:35:28.944Z,37.47
2018-04-15T22:37:57.397Z,36.87
2018-04-15T22:40:25.908Z,40.63
2018-04-15T22:42:54.358Z,38.73
2018-04-15T22:45:22.828Z,37.27
2018-04-15T22:47:56.956Z,37.83
2018-04-15T22:50:31.125Z,38.87
2018-04-15T22:52:59.672Z,34.80
2018-04-15T22:55:28.131Z,37.80
2018-04-15T22:57:56.575Z,39.10
2018-04-15T23:00:25.065Z,38.73
2018-04-15T23:02:53.543Z,38.30
2018-04-15T23:05:21.996Z,36.07
2018-04-15T23:07:50.480Z,36.70
2018-04-15T23:10:18.939Z,37.60
2018-04-15T23:12:47.412Z,34.43
2018-04-15T23:15:15.924Z,36.97
2018-04-15T23:17:44.400Z,33.00
2018-04-15T23:20:12.871Z,39.17
2018-04-15T23:22:41.367Z,35.87
2018-04-15T23:25:09.824Z,37.83
2018-04-15T23:27:38.304Z,33.53
2018-04-15T23:30:06.807Z,37.43
2018-04-15T23:32:35.255Z,36.90
2018-04-15T23:35:03.725Z,34.60
2018-04-15T23:37:32.220Z,35.37
2018-04-15T23:40:00.688Z,32.77
2018-04-15T23:42:29.171Z,37.93
2018-04-15T23:44:57.664Z,35.73
2018-04-15T23:47:26.104Z,34.20
2018-04-15T23:49:54.564Z,35.97
2018-04-15T23:52:23.070Z,31.13
2018-04-15T23:54:51.656Z,36.70
2018-04-15T23:57:20.129Z,38.77
2018-04-15T23:59:48.669Z,34.00
